Time;durP1;ratioP1;P1;durP2;ratioP2;P2;SDS_P1;SDS_P2;PMS_P1;PMS_P2;Temp;Humidity;BMP_temperature;BMP_pressure;BME280_temperature;BME280_humidity;BME280_pressure;Samples;Min_cycle;Max_cycle;Signal;HPM_P1;HPM_P2
2021/04/23 00:00:41;;;;;;;;;;;;;;;;;;5025530;28;834;-58
2021/04/23 00:03:32;;;;;;;;;;;;;;;;;;5024746;28;1967;-58
2021/04/23 00:06:06;;;;;;;;;;;;;;;;;;5027819;28;1174;-58
2021/04/23 00:08:32;;;;;;;;;;;;;;;;;;5025425;28;858;-58
2021/04/23 00:10:57;;;;;;;;;;;;;;;;;;5026800;28;870;-59
2021/04/23 00:13:23;;;;;;;;;;;;;;;;;;5011948;28;1421;-58
2021/04/23 00:15:49;;;;;;;;;;;;;;;;;;5004326;28;842;-58
2021/04/23 00:18:15;;;;;;;;;;;;;;;;;;5004457;28;876;-58
2021/04/23 00:20:41;;;;;;;;;;;;;;;;;;5005455;28;929;-58
2021/04/23 00:23:08;;;;;;;;;;;;;;;;;;5005731;28;1890;-58
2021/04/23 00:25:34;;;;;;;;;;;;;;;;;;5005279;28;838;-58
2021/04/23 00:28:01;;;;;;;;;;;;;;;;;;5004165;28;868;-59
2021/04/23 00:30:29;;;;;;;;;;;;;;;;;;5006094;28;847;-58
2021/04/23 00:32:55;;;;;;;;;;;;;;;;;;5005760;28;848;-59
2021/04/23 00:35:24;;;;;;;;;;;;;;;;;;5003468;28;850;-59
2021/04/23 00:37:51;;;;;;;;;;;;;;;;;;5005390;28;807;-59
2021/04/23 00:40:19;;;;;;;;;;;;;;;;;;5005308;28;827;-58
2021/04/23 00:42:44;;;;;;;;;;;;;;;;;;5004943;28;1898;-58
2021/04/23 00:45:11;;;;;;;;;;;;;;;;;;5004724;28;815;-59
2021/04/23 00:47:37;;;;;;;;;;;;;;;;;;5004447;28;866;-58
2021/04/23 00:50:03;;;;;;;;;;;;;;;;;;5004753;28;874;-58
2021/04/23 00:52:29;;;;;;;;;;;;;;;;;;5022082;28;1152;-58
2021/04/23 00:54:54;;;;;;;;;;;;;;;;;;5025648;28;786;-58
2021/04/23 00:57:20;;;;;;;;;;;;;;;;;;5027723;28;803;-58
2021/04/23 00:59:45;;;;;;;;;;;;;;;;;;5024851;28;791;-58
2021/04/23 01:02:14;;;;;;;;;;;;;;;;;;5024603;28;866;-58
2021/04/23 01:04:40;;;;;;;;;;;;;;;;;;5024450;28;2114;-58
2021/04/23 01:07:06;;;;;;;;;;;;;;;;;;5024710;28;980;-58
2021/04/23 01:09:32;;;;;;;;;;;;;;;;;;5023999;28;850;-59
2021/04/23 01:11:59;;;;;;;;;;;;;;;;;;5021125;28;1251;-58
2021/04/23 01:14:25;;;;;;;;;;;;;;;;;;5004855;28;681;-58
2021/04/23 01:16:50;;;;;;;;;;;;;;;;;;5004293;28;906;-59
2021/04/23 01:19:18;;;;;;;;;;;;;;;;;;5004758;28;871;-58
2021/04/23 01:21:44;;;;;;;;;;;;;;;;;;5004121;28;1279;-59
2021/04/23 01:24:10;;;;;;;;;;;;;;;;;;5004936;28;1895;-58
2021/04/23 01:26:38;;;;;;;;;;;;;;;;;;5002862;28;910;-58
2021/04/23 01:29:04;;;;;;;;;;;;;;;;;;5004295;28;874;-59
2021/04/23 01:31:30;;;;;;;;;;;;;;;;;;5003269;28;903;-60
2021/04/23 01:34:00;;;;;;;;;;;;;;;;;;5005357;28;811;-58
2021/04/23 01:36:26;;;;;;;;;;;;;;;;;;5004348;28;861;-58
2021/04/23 01:38:52;;;;;;;;;;;;;;;;;;5004677;28;807;-58
2021/04/23 01:41:18;;;;;;;;;;;;;;;;;;5069389;28;1053;-58
2021/04/23 01:43:44;;;;;;;;;;;;;;;;;;5004146;28;1910;-58
2021/04/23 01:46:10;;;;;;;;;;;;;;;;;;5004461;28;806;-59
2021/04/23 01:48:36;;;;;;;;;;;;;;;;;;5003980;28;969;-58
2021/04/23 01:51:04;;;;;;;;;;;;;;;;;;5009288;28;1086;-58
2021/04/23 01:53:29;;;;;;;;;;;;;;;;;;5023954;28;822;-59
2021/04/23 01:55:55;;;;;;;;;;;;;;;;;;5025085;28;837;-59
2021/04/23 01:58:20;;;;;;;;;;;;;;;;;;5026422;28;835;-58
2021/04/23 02:00:48;;;;;;;;;;;;;;;;;;5023591;28;874;-58
2021/04/23 02:03:15;;;;;;;;;;;;;;;;;;5015490;28;1895;-58
2021/04/23 02:05:41;;;;;;;;;;;;;;;;;;5004270;28;861;-58
2021/04/23 02:08:07;;;;;;;;;;;;;;;;;;5003700;28;826;-58
2021/04/23 02:10:35;;;;;;;;;;;;;;;;;;5003409;28;902;-58
2021/04/23 02:13:01;;;;;;;;;;;;;;;;;;5003210;28;1291;-59
2021/04/23 02:15:27;;;;;;;;;;;;;;;;;;5004415;28;799;-58
2021/04/23 02:17:52;;;;;;;;;;;;;;;;;;5003907;28;810;-58
2021/04/23 02:20:23;;;;;;;;;;;;;;;;;;5004622;28;858;-58
2021/04/23 02:22:48;;;;;;;;;;;;;;;;;;5003612;28;1890;-58
2021/04/23 02:25:15;;;;;;;;;;;;;;;;;;4993036;28;1466;-58
2021/04/23 02:27:41;;;;;;;;;;;;;;;;;;5000369;28;855;-58
2021/04/23 02:30:08;;;;;;;;;;;;;;;;;;5003346;28;847;-58
2021/04/23 02:32:34;;;;;;;;;;;;;;;;;;4997242;28;799;-58
2021/04/23 02:34:59;;;;;;;;;;;;;;;;;;4984099;28;879;-59
2021/04/23 02:37:25;;;;;;;;;;;;;;;;;;4984961;28;835;-58
2021/04/23 02:39:50;;;;;;;;;;;;;;;;;;4986324;28;914;-58
2021/04/23 02:42:15;;;;;;;;;;;;;;;;;;4998622;28;1327;-58
2021/04/23 02:44:41;;;;;;;;;;;;;;;;;;5006515;28;1993;-58
2021/04/23 02:47:07;;;;;;;;;;;;;;;;;;5006892;28;918;-58
2021/04/23 02:49:32;;;;;;;;;;;;;;;;;;5006852;28;871;-58
2021/04/23 02:51:57;;;;;;;;;;;;;;;;;;5020915;28;1094;-58
2021/04/23 02:54:23;;;;;;;;;;;;;;;;;;5025839;28;819;-58
2021/04/23 02:56:48;;;;;;;;;;;;;;;;;;5026587;28;688;-58
2021/04/23 02:59:14;;;;;;;;;;;;;;;;;;5029665;28;827;-58
2021/04/23 03:01:42;;;;;;;;;;;;;;;;;;5017940;28;899;-58
2021/04/23 03:04:07;;;;;;;;;;;;;;;;;;5005243;28;1946;-58
2021/04/23 03:06:33;;;;;;;;;;;;;;;;;;5006592;28;799;-58
2021/04/23 03:08:58;;;;;;;;;;;;;;;;;;5007518;28;814;-58
2021/04/23 03:11:24;;;;;;;;;;;;;;;;;;5007179;28;1390;-58
2021/04/23 03:13:51;;;;;;;;;;;;;;;;;;5006452;28;925;-58
2021/04/23 03:16:17;;;;;;;;;;;;;;;;;;5005318;28;907;-58
2021/04/23 03:18:43;;;;;;;;;;;;;;;;;;5005139;28;846;-58
2021/04/23 03:21:10;;;;;;;;;;;;;;;;;;5005787;28;1501;-58
2021/04/23 03:23:35;;;;;;;;;;;;;;;;;;5006048;28;1891;-58
2021/04/23 03:26:03;;;;;;;;;;;;;;;;;;5006168;28;877;-58
2021/04/23 03:28:28;;;;;;;;;;;;;;;;;;5006062;28;866;-58
2021/04/23 03:30:54;;;;;;;;;;;;;;;;;;5006327;28;980;-58
2021/04/23 03:33:20;;;;;;;;;;;;;;;;;;5007100;28;827;-57
2021/04/23 03:35:48;;;;;;;;;;;;;;;;;;5006450;28;838;-58
2021/04/23 03:38:14;;;;;;;;;;;;;;;;;;5006680;28;834;-58
2021/04/23 03:40:40;;;;;;;;;;;;;;;;;;5077554;28;1223;-58
2021/04/23 03:43:05;;;;;;;;;;;;;;;;;;5006063;28;1918;-58
2021/04/23 03:45:31;;;;;;;;;;;;;;;;;;5004271;28;1239;-58
2021/04/23 03:47:56;;;;;;;;;;;;;;;;;;5007026;28;901;-58
2021/04/23 03:50:24;;;;;;;;;;;;;;;;;;5005705;28;898;-59
2021/04/23 03:52:50;;;;;;;;;;;;;;;;;;5005122;28;887;-58
2021/04/23 03:55:19;;;;;;;;;;;;;;;;;;5005717;28;894;-58
2021/04/23 03:57:44;;;;;;;;;;;;;;;;;;5005605;28;929;-58
2021/04/23 04:00:13;;;;;;;;;;;;;;;;;;5008787;28;910;-58
2021/04/23 04:02:39;;;;;;;;;;;;;;;;;;5005921;28;878;-58
2021/04/23 04:05:05;;;;;;;;;;;;;;;;;;5005789;28;1890;-58
2021/04/23 04:07:31;;;;;;;;;;;;;;;;;;5004457;28;869;-58
2021/04/23 04:09:56;;;;;;;;;;;;;;;;;;5006218;28;882;-58
2021/04/23 04:12:21;;;;;;;;;;;;;;;;;;5005349;28;1339;-58
2021/04/23 04:14:47;;;;;;;;;;;;;;;;;;5005633;28;921;-58
2021/04/23 04:17:12;;;;;;;;;;;;;;;;;;5005333;28;850;-58
2021/04/23 04:19:38;;;;;;;;;;;;;;;;;;5005149;28;859;-58
2021/04/23 04:22:03;;;;;;;;;;;;;;;;;;5004962;28;870;-58
2021/04/23 04:24:28;;;;;;;;;;;;;;;;;;5006033;28;1894;-58
2021/04/23 04:26:54;;;;;;;;;;;;;;;;;;5004057;28;1170;-58
2021/04/23 04:29:19;;;;;;;;;;;;;;;;;;5005797;28;834;-58
2021/04/23 04:31:48;;;;;;;;;;;;;;;;;;5005455;28;865;-58
2021/04/23 04:34:13;;;;;;;;;;;;;;;;;;5003886;28;1550;-59
2021/04/23 04:36:39;;;;;;;;;;;;;;;;;;5004778;28;851;-58
2021/04/23 04:39:05;;;;;;;;;;;;;;;;;;5004555;28;950;-58
2021/04/23 04:41:30;;;;;;;;;;;;;;;;;;5002843;28;1399;-58
2021/04/23 04:43:56;;;;;;;;;;;;;;;;;;5005217;28;1914;-58
2021/04/23 04:46:22;;;;;;;;;;;;;;;;;;5004964;28;866;-58
2021/04/23 04:48:48;;;;;;;;;;;;;;;;;;5004868;28;874;-58
2021/04/23 04:51:13;;;;;;;;;;;;;;;;;;5010838;28;1154;-59
2021/04/23 04:53:38;;;;;;;;;;;;;;;;;;5024675;28;960;-58
2021/04/23 04:56:04;;;;;;;;;;;;;;;;;;5024050;28;689;-58
2021/04/23 04:58:32;;;;;;;;;;;;;;;;;;5024406;28;877;-59
2021/04/23 05:00:58;;;;;;;;;;;;;;;;;;5024891;28;827;-58
2021/04/23 05:03:24;;;;;;;;;;;;;;;;;;5023549;28;1894;-58
2021/04/23 05:05:50;;;;;;;;;;;;;;;;;;5023532;28;870;-59
2021/04/23 05:08:15;;;;;;;;;;;;;;;;;;5024661;28;893;-58
2021/04/23 05:10:41;;;;;;;;;;;;;;;;;;5015532;28;1346;-58
2021/04/23 05:13:06;;;;;;;;;;;;;;;;;;5004457;28;798;-58
2021/04/23 05:15:31;;;;;;;;;;;;;;;;;;5004060;28;881;-58
2021/04/23 05:17:57;;;;;;;;;;;;;;;;;;5004938;28;903;-58
2021/04/23 05:20:23;;;;;;;;;;;;;;;;;;5004150;28;838;-59
2021/04/23 05:22:48;;;;;;;;;;;;;;;;;;5004183;28;1891;-58
2021/04/23 05:25:15;;;;;;;;;;;;;;;;;;5003908;28;807;-58
2021/04/23 05:27:41;;;;;;;;;;;;;;;;;;5003953;28;1374;-58
2021/04/23 05:30:08;;;;;;;;;;;;;;;;;;5003152;28;874;-58
2021/04/23 05:32:34;;;;;;;;;;;;;;;;;;5004137;28;870;-59
2021/04/23 05:34:59;;;;;;;;;;;;;;;;;;5003597;28;843;-60
2021/04/23 05:37:25;;;;;;;;;;;;;;;;;;5004965;28;802;-59
2021/04/23 05:39:50;;;;;;;;;;;;;;;;;;5014942;28;1300;-58
2021/04/23 05:42:15;;;;;;;;;;;;;;;;;;5004511;28;795;-58
2021/04/23 05:44:42;;;;;;;;;;;;;;;;;;5003817;28;1903;-58
2021/04/23 05:47:07;;;;;;;;;;;;;;;;;;4996075;28;2545;-59
2021/04/23 05:49:33;;;;;;;;;;;;;;;;;;5002660;28;810;-58
2021/04/23 05:51:59;;;;;;;;;;;;;;;;;;5017409;28;1157;-58
2021/04/23 05:54:25;;;;;;;;;;;;;;;;;;5024039;28;917;-58
2021/04/23 05:56:50;;;;;;;;;;;;;;;;;;5022143;28;1245;-58
2021/04/23 05:59:16;;;;;;;;;;;;;;;;;;5023519;28;894;-58
2021/04/23 06:01:41;;;;;;;;;;;;;;;;;;5022966;28;885;-58
2021/04/23 06:04:07;;;;;;;;;;;;;;;;;;5023016;28;1898;-58
2021/04/23 06:06:32;;;;;;;;;;;;;;;;;;5023396;28;865;-58
2021/04/23 06:08:58;;;;;;;;;;;;;;;;;;5024111;28;874;-58
2021/04/23 06:11:23;;;;;;;;;;;;;;;;;;5005328;28;1354;-59
2021/04/23 06:13:49;;;;;;;;;;;;;;;;;;5002403;28;1155;-59
2021/04/23 06:16:14;;;;;;;;;;;;;;;;;;5003593;28;811;-58
2021/04/23 06:18:41;;;;;;;;;;;;;;;;;;5003721;28;870;-58
2021/04/23 06:21:06;;;;;;;;;;;;;;;;;;4995222;28;2523;-58
2021/04/23 06:23:32;;;;;;;;;;;;;;;;;;5000082;28;1983;-58
2021/04/23 06:25:57;;;;;;;;;;;;;;;;;;5003920;28;823;-58
2021/04/23 06:28:23;;;;;;;;;;;;;;;;;;5003486;28;791;-58
2021/04/23 06:30:48;;;;;;;;;;;;;;;;;;5003764;28;815;-58
2021/04/23 06:33:18;;;;;;;;;;;;;;;;;;5002853;28;827;-58
2021/04/23 06:35:44;;;;;;;;;;;;;;;;;;5003496;28;871;-58
2021/04/23 06:38:09;;;;;;;;;;;;;;;;;;5003671;28;819;-58
2021/04/23 06:40:35;;;;;;;;;;;;;;;;;;5015094;28;1087;-58
2021/04/23 06:43:01;;;;;;;;;;;;;;;;;;5029660;28;1898;-58
2021/04/23 06:45:26;;;;;;;;;;;;;;;;;;5029574;28;1098;-58
2021/04/23 06:47:51;;;;;;;;;;;;;;;;;;5027891;28;1165;-58
2021/04/23 06:50:18;;;;;;;;;;;;;;;;;;5021458;28;1360;-57
2021/04/23 06:52:44;;;;;;;;;;;;;;;;;;5027539;28;1092;-58
2021/04/23 06:55:11;;;;;;;;;;;;;;;;;;5029074;28;1086;-58
2021/04/23 06:57:36;;;;;;;;;;;;;;;;;;5028414;28;1184;-58
2021/04/23 07:00:04;;;;;;;;;;;;;;;;;;5005451;28;1027;-59
2021/04/23 07:02:29;;;;;;;;;;;;;;;;;;5003740;28;924;-61
2021/04/23 07:04:55;;;;;;;;;;;;;;;;;;5004083;28;1960;-58
2021/04/23 07:07:20;;;;;;;;;;;;;;;;;;5003343;28;787;-58
2021/04/23 07:09:45;;;;;;;;;;;;;;;;;;5003325;28;826;-58
2021/04/23 07:12:11;;;;;;;;;;;;;;;;;;5003857;28;819;-58
2021/04/23 07:14:36;;;;;;;;;;;;;;;;;;5002762;28;802;-58
2021/04/23 07:17:04;;;;;;;;;;;;;;;;;;5002537;28;1016;-58
2021/04/23 07:19:29;;;;;;;;;;;;;;;;;;5003542;28;1143;-61
2021/04/23 07:21:55;;;;;;;;;;;;;;;;;;5003700;28;954;-58
2021/04/23 07:24:20;;;;;;;;;;;;;;;;;;5001501;28;1989;-59
2021/04/23 07:26:46;;;;;;;;;;;;;;;;;;5005216;28;1788;-58
2021/04/23 07:29:11;;;;;;;;;;;;;;;;;;5004043;28;1413;-59
2021/04/23 07:31:36;;;;;;;;;;;;;;;;;;5006403;28;886;-58
2021/04/23 07:34:02;;;;;;;;;;;;;;;;;;5006194;28;1843;-59
2021/04/23 07:36:28;;;;;;;;;;;;;;;;;;5017612;28;1199;-59
2021/04/23 07:38:53;;;;;;;;;;;;;;;;;;5107682;28;846;-59
2021/04/23 07:41:18;;;;;;;;;;;;;;;;;;5109394;28;833;-59
2021/04/23 07:43:44;;;;;;;;;;;;;;;;;;5021590;28;1898;-58
2021/04/23 07:46:09;;;;;;;;;;;;;;;;;;5006261;28;842;-58
2021/04/23 07:48:35;;;;;;;;;;;;;;;;;;5005999;28;863;-59
2021/04/23 07:51:00;;;;;;;;;;;;;;;;;;5011124;28;1132;-59
2021/04/23 07:53:26;;;;;;;;;;;;;;;;;;5027242;28;890;-59
2021/04/23 07:55:51;;;;;;;;;;;;;;;;;;5025553;28;863;-58
2021/04/23 07:58:17;;;;;;;;;;;;;;;;;;5020849;28;1358;-59
2021/04/23 08:00:42;;;;;;;;;;;;;;;;;;4998971;28;1947;-59
2021/04/23 08:03:07;;;;;;;;;;;;;;;;;;4995855;28;1902;-58
2021/04/23 08:05:33;;;;;;;;;;;;;;;;;;5005292;28;815;-59
2021/04/23 08:07:59;;;;;;;;;;;;;;;;;;4990451;28;958;-58
2021/04/23 08:10:24;;;;;;;;;;;;;;;;;;5032270;28;1138;-59
2021/04/23 08:12:52;;;;;;;;;;;;;;;;;;5108446;28;834;-58
2021/04/23 08:15:18;;;;;;;;;;;;;;;;;;5107672;28;811;-59
2021/04/23 08:17:43;;;;;;;;;;;;;;;;;;5108790;28;822;-58
2021/04/23 08:20:10;;;;;;;;;;;;;;;;;;5038220;28;1067;-59
2021/04/23 08:22:36;;;;;;;;;;;;;;;;;;5004679;28;1241;-58
2021/04/23 08:25:02;;;;;;;;;;;;;;;;;;5004399;28;1890;-59
2021/04/23 08:27:27;;;;;;;;;;;;;;;;;;5006219;28;988;-58
2021/04/23 08:29:54;;;;;;;;;;;;;;;;;;5003029;28;1704;-58
2021/04/23 08:32:20;;;;;;;;;;;;;;;;;;4986280;28;1627;-58
2021/04/23 08:34:45;;;;;;;;;;;;;;;;;;5071044;28;1071;-58
2021/04/23 08:37:10;;;;;;;;;;;;;;;;;;5042726;28;1405;-58
2021/04/23 08:39:36;;;;;;;;;;;;;;;;;;5004386;28;1028;-58
2021/04/23 08:42:02;;;;;;;;;;;;;;;;;;5004834;28;827;-58
2021/04/23 08:44:27;;;;;;;;;;;;;;;;;;5005085;28;1947;-58
2021/04/23 08:46:53;;;;;;;;;;;;;;;;;;5002856;28;1473;-58
2021/04/23 08:49:20;;;;;;;;;;;;;;;;;;5003771;28;1167;-58
2021/04/23 08:51:45;;;;;;;;;;;;;;;;;;5016145;28;1149;-58
2021/04/23 08:54:11;;;;;;;;;;;;;;;;;;5019700;28;1389;-59
2021/04/23 08:56:37;;;;;;;;;;;;;;;;;;5004519;28;818;-57
2021/04/23 08:59:02;;;;;;;;;;;;;;;;;;5005209;28;782;-58
2021/04/23 09:01:28;;;;;;;;;;;;;;;;;;5004107;28;1262;-58
2021/04/23 09:03:54;;;;;;;;;;;;;;;;;;5003361;28;1983;-58
2021/04/23 09:06:23;;;;;;;;;;;;;;;;;;5003848;28;834;-58
2021/04/23 09:08:51;;;;;;;;;;;;;;;;;;5004189;28;1230;-58
2021/04/23 09:11:18;;;;;;;;;;;;;;;;;;4994193;28;1532;-58
2021/04/23 09:13:49;;;;;;;;;;;;;;;;;;4984973;28;826;-57
2021/04/23 09:16:15;;;;;;;;;;;;;;;;;;5002688;28;1530;-58
2021/04/23 09:18:40;;;;;;;;;;;;;;;;;;5004105;28;1223;-57
2021/04/23 09:21:05;;;;;;;;;;;;;;;;;;5004022;28;1195;-58
2021/04/23 09:23:31;;;;;;;;;;;;;;;;;;5008002;28;1902;-61
2021/04/23 09:25:57;;;;;;;;;;;;;;;;;;5004480;28;1163;-57
2021/04/23 09:28:39;;;;;;;;;;;;;;;;;;5003002;28;1214;-57
2021/04/23 09:31:20;;;;;;;;;;;;;;;;;;5010944;28;1355;-59
2021/04/23 09:33:52;;;;;;;;;;;;;;;;;;5002360;28;1545;-57
2021/04/23 09:36:25;;;;;;;;;;;;;;;;;;5008664;28;1969;-58
2021/04/23 09:39:05;;;;;;;;;;;;;;;;;;5004683;28;1406;-58
2021/04/23 09:41:31;;;;;;;;;;;;;;;;;;5004931;28;1226;-58
2021/04/23 09:43:56;;;;;;;;;;;;;;;;;;5023771;28;1926;-57
2021/04/23 09:46:32;;;;;;;;;;;;;;;;;;5003041;28;1167;-58
2021/04/23 09:49:16;;;;;;;;;;;;;;;;;;5002816;28;1258;-58
2021/04/23 09:51:41;;;;;;;;;;;;;;;;;;5014644;28;1142;-59
2021/04/23 09:54:17;;;;;;;;;;;;;;;;;;5014162;28;1481;-58
2021/04/23 09:56:42;;;;;;;;;;;;;;;;;;5002751;28;872;-57
2021/04/23 09:59:12;;;;;;;;;;;;;;;;;;5003110;28;1242;-60
2021/04/23 10:01:49;;;;;;;;;;;;;;;;;;5003187;28;1218;-57
2021/04/23 10:04:34;;;;;;;;;;;;;;;;;;5003049;28;2050;-59
2021/04/23 10:07:06;;;;;;;;;;;;;;;;;;5003358;28;894;-60
2021/04/23 10:09:32;;;;;;;;;;;;;;;;;;5003283;28;874;-58
2021/04/23 10:11:57;;;;;;;;;;;;;;;;;;5002889;28;1376;-58
2021/04/23 10:14:23;;;;;;;;;;;;;;;;;;5004454;28;803;-57
2021/04/23 10:16:55;;;;;;;;;;;;;;;;;;5003990;28;823;-57
2021/04/23 10:19:20;;;;;;;;;;;;;;;;;;5003742;28;910;-58
2021/04/23 10:21:45;;;;;;;;;;;;;;;;;;5003519;28;811;-58
2021/04/23 10:24:11;;;;;;;;;;;;;;;;;;5003270;28;1882;-59
2021/04/23 10:26:36;;;;;;;;;;;;;;;;;;5002973;28;831;-57
2021/04/23 10:29:02;;;;;;;;;;;;;;;;;;5003148;28;803;-57
2021/04/23 10:31:28;;;;;;;;;;;;;;;;;;5004852;28;838;-56
2021/04/23 10:33:53;;;;;;;;;;;;;;;;;;5002235;28;931;-57
2021/04/23 10:36:19;;;;;;;;;;;;;;;;;;5003443;28;1640;-57
2021/04/23 10:38:45;;;;;;;;;;;;;;;;;;5003587;28;794;-58
2021/04/23 10:41:11;;;;;;;;;;;;;;;;;;5003955;28;909;-58
2021/04/23 10:43:36;;;;;;;;;;;;;;;;;;5003620;28;1903;-57
2021/04/23 10:46:04;;;;;;;;;;;;;;;;;;5002179;28;1451;-56
2021/04/23 10:48:31;;;;;;;;;;;;;;;;;;5004907;28;885;-58
2021/04/23 10:50:58;;;;;;;;;;;;;;;;;;5008596;28;1161;-57
2021/04/23 10:53:26;;;;;;;;;;;;;;;;;;5016607;28;1358;-57
2021/04/23 10:55:52;;;;;;;;;;;;;;;;;;5003625;28;834;-58
2021/04/23 10:58:20;;;;;;;;;;;;;;;;;;5003245;28;830;-57
2021/04/23 11:00:48;;;;;;;;;;;;;;;;;;5004695;28;810;-57
2021/04/23 11:03:23;;;;;;;;;;;;;;;;;;5006234;28;1976;-57
2021/04/23 11:05:56;;;;;;;;;;;;;;;;;;5006903;28;830;-58
2021/04/23 11:08:22;;;;;;;;;;;;;;;;;;5006824;28;810;-57
2021/04/23 11:11:00;;;;;;;;;;;;;;;;;;5006443;28;830;-58
2021/04/23 11:13:26;;;;;;;;;;;;;;;;;;5007933;28;928;-57
2021/04/23 11:16:10;;;;;;;;;;;;;;;;;;5006445;28;815;-57
2021/04/23 11:18:35;;;;;;;;;;;;;;;;;;5006554;28;819;-57
2021/04/23 11:21:19;;;;;;;;;;;;;;;;;;5005326;28;890;-57
2021/04/23 11:24:03;;;;;;;;;;;;;;;;;;5005939;28;1973;-56
2021/04/23 11:26:47;;;;;;;;;;;;;;;;;;5006875;28;814;-57
2021/04/23 11:29:14;;;;;;;;;;;;;;;;;;5006586;28;728;-57
2021/04/23 11:31:58;;;;;;;;;;;;;;;;;;5005206;28;867;-57
2021/04/23 11:34:37;;;;;;;;;;;;;;;;;;5005925;28;971;-57
2021/04/23 11:37:07;;;;;;;;;;;;;;;;;;5052800;28;1053;-57
2021/04/23 11:39:34;;;;;;;;;;;;;;;;;;5109360;28;916;-57
2021/04/23 11:42:18;;;;;;;;;;;;;;;;;;5108543;28;836;-57
2021/04/23 11:44:49;;;;;;;;;;;;;;;;;;5109566;28;1898;-57
2021/04/23 11:47:16;;;;;;;;;;;;;;;;;;5110102;28;841;-57
2021/04/23 11:49:42;;;;;;;;;;;;;;;;;;5108045;28;921;-58
2021/04/23 11:52:07;;;;;;;;;;;;;;;;;;5049680;28;1153;-58
2021/04/23 11:54:32;;;;;;;;;;;;;;;;;;5006416;28;1358;-57
2021/04/23 11:57:02;;;;;;;;;;;;;;;;;;5006881;28;885;-57
2021/04/23 11:59:28;;;;;;;;;;;;;;;;;;5006459;28;858;-57
2021/04/23 12:01:53;;;;;;;;;;;;;;;;;;5005157;28;874;-57
2021/04/23 12:04:37;;;;;;;;;;;;;;;;;;5004855;28;1898;-57
2021/04/23 12:07:03;;;;;;;;;;;;;;;;;;5005546;28;827;-57
2021/04/23 12:09:28;;;;;;;;;;;;;;;;;;5006451;28;921;-58
2021/04/23 12:12:06;;;;;;;;;;;;;;;;;;5006151;28;810;-57
2021/04/23 12:14:42;;;;;;;;;;;;;;;;;;5005646;28;842;-58
2021/04/23 12:17:07;;;;;;;;;;;;;;;;;;5003955;28;910;-59
2021/04/23 12:19:33;;;;;;;;;;;;;;;;;;5006093;28;819;-57
2021/04/23 12:21:58;;;;;;;;;;;;;;;;;;5006178;28;1295;-58
2021/04/23 12:24:23;;;;;;;;;;;;;;;;;;5004647;28;1971;-57
2021/04/23 12:26:49;;;;;;;;;;;;;;;;;;5003881;28;858;-57
2021/04/23 12:29:21;;;;;;;;;;;;;;;;;;5005938;28;843;-57
2021/04/23 12:31:46;;;;;;;;;;;;;;;;;;5005405;28;811;-57
2021/04/23 12:34:14;;;;;;;;;;;;;;;;;;5005056;28;827;-58
2021/04/23 12:36:50;;;;;;;;;;;;;;;;;;5005780;28;874;-57
2021/04/23 12:39:26;;;;;;;;;;;;;;;;;;5005058;28;1043;-58
2021/04/23 12:41:56;;;;;;;;;;;;;;;;;;5005188;28;904;-57
2021/04/23 12:44:25;;;;;;;;;;;;;;;;;;5005351;28;1910;-57
2021/04/23 12:46:53;;;;;;;;;;;;;;;;;;5005057;28;886;-57
2021/04/23 12:49:27;;;;;;;;;;;;;;;;;;5001650;28;1619;-57
2021/04/23 12:51:52;;;;;;;;;;;;;;;;;;5003257;28;1750;-58
2021/04/23 12:54:18;;;;;;;;;;;;;;;;;;5004291;28;1382;-57
2021/04/23 12:56:51;;;;;;;;;;;;;;;;;;5004616;28;1257;-58
2021/04/23 12:59:36;;;;;;;;;;;;;;;;;;5002201;28;1646;-57
2021/04/23 13:02:02;;;;;;;;;;;;;;;;;;5004114;28;1203;-57
2021/04/23 13:04:28;;;;;;;;;;;;;;;;;;5005064;28;1898;-57
2021/04/23 13:06:54;;;;;;;;;;;;;;;;;;5002864;28;1214;-57
2021/04/23 13:09:28;;;;;;;;;;;;;;;;;;5004809;28;1620;-59
2021/04/23 13:11:53;;;;;;;;;;;;;;;;;;5002022;28;1245;-57
2021/04/23 13:14:20;;;;;;;;;;;;;;;;;;5002223;28;1192;-59
2021/04/23 13:17:12;;;;;;;;;;;;;;;;;;5003196;28;1269;-58
2021/04/23 13:19:39;;;;;;;;;;;;;;;;;;5007327;28;1305;-57
2021/04/23 13:22:21;;;;;;;;;;;;;;;;;;5003656;28;1191;-57
2021/04/23 13:24:47;;;;;;;;;;;;;;;;;;5003352;28;1890;-58
2021/04/23 13:27:25;;;;;;;;;;;;;;;;;;5003397;28;855;-57
2021/04/23 13:29:51;;;;;;;;;;;;;;;;;;5004012;28;835;-57
2021/04/23 13:32:16;;;;;;;;;;;;;;;;;;5004490;28;823;-57
2021/04/23 13:34:56;;;;;;;;;;;;;;;;;;5005198;28;893;-57
2021/04/23 13:37:30;;;;;;;;;;;;;;;;;;5004210;28;815;-57
2021/04/23 13:40:14;;;;;;;;;;;;;;;;;;5004746;28;925;-57
2021/04/23 13:42:39;;;;;;;;;;;;;;;;;;5004422;28;839;-57
2021/04/23 13:45:11;;;;;;;;;;;;;;;;;;5009748;28;1914;-58
2021/04/23 13:47:38;;;;;;;;;;;;;;;;;;5020380;28;1158;-57
2021/04/23 13:50:10;;;;;;;;;;;;;;;;;;5023911;28;865;-59
2021/04/23 13:52:46;;;;;;;;;;;;;;;;;;5012732;27;1183;-57
2021/04/23 13:55:15;;;;;;;;;;;;;;;;;;5004097;28;894;-57
2021/04/23 13:57:57;;;;;;;;;;;;;;;;;;5003952;28;866;-57
2021/04/23 14:00:22;;;;;;;;;;;;;;;;;;5003786;28;1639;-56
2021/04/23 14:02:57;;;;;;;;;;;;;;;;;;5003990;28;815;-57
2021/04/23 14:05:22;;;;;;;;;;;;;;;;;;5004063;28;1959;-57
2021/04/23 14:07:48;;;;;;;;;;;;;;;;;;5004118;28;841;-58
2021/04/23 14:10:13;;;;;;;;;;;;;;;;;;5004121;28;910;-58
2021/04/23 14:12:38;;;;;;;;;;;;;;;;;;5003786;28;842;-57
2021/04/23 14:15:04;;;;;;;;;;;;;;;;;;5002007;28;894;-58
2021/04/23 14:17:31;;;;;;;;;;;;;;;;;;5003793;28;1607;-59
2021/04/23 14:19:57;;;;;;;;;;;;;;;;;;5004004;28;879;-57
2021/04/23 14:22:22;;;;;;;;;;;;;;;;;;5003991;28;1208;-57
2021/04/23 14:24:48;;;;;;;;;;;;;;;;;;5002030;28;1953;-57
2021/04/23 14:27:13;;;;;;;;;;;;;;;;;;5003112;28;1398;-57
2021/04/23 14:29:39;;;;;;;;;;;;;;;;;;5003587;28;835;-58
2021/04/23 14:32:05;;;;;;;;;;;;;;;;;;5003909;28;838;-60
2021/04/23 14:34:31;;;;;;;;;;;;;;;;;;5004691;28;846;-60
2021/04/23 14:36:56;;;;;;;;;;;;;;;;;;5008242;28;882;-57
2021/04/23 14:39:21;;;;;;;;;;;;;;;;;;5007382;28;842;-58
2021/04/23 14:41:48;;;;;;;;;;;;;;;;;;5007420;28;866;-58
2021/04/23 14:44:14;;;;;;;;;;;;;;;;;;5007526;28;1918;-58
2021/04/23 14:46:39;;;;;;;;;;;;;;;;;;5007478;28;855;-57
2021/04/23 14:49:05;;;;;;;;;;;;;;;;;;5007382;28;904;-57
2021/04/23 14:51:31;;;;;;;;;;;;;;;;;;5011791;28;1262;-58
2021/04/23 14:53:56;;;;;;;;;;;;;;;;;;5008093;28;834;-58
2021/04/23 14:56:22;;;;;;;;;;;;;;;;;;5007131;28;965;-57
2021/04/23 14:58:47;;;;;;;;;;;;;;;;;;5005592;28;867;-58
2021/04/23 15:01:13;;;;;;;;;;;;;;;;;;5007252;28;815;-57
2021/04/23 15:03:38;;;;;;;;;;;;;;;;;;5006975;28;1977;-57
2021/04/23 15:06:04;;;;;;;;;;;;;;;;;;5007076;28;1044;-57
2021/04/23 15:08:30;;;;;;;;;;;;;;;;;;5007809;28;827;-59
2021/04/23 15:10:56;;;;;;;;;;;;;;;;;;5008107;28;839;-57
2021/04/23 15:13:23;;;;;;;;;;;;;;;;;;5007212;28;866;-58
2021/04/23 15:15:49;;;;;;;;;;;;;;;;;;5006835;28;858;-58
2021/04/23 15:18:14;;;;;;;;;;;;;;;;;;5006967;28;807;-57
2021/04/23 15:20:40;;;;;;;;;;;;;;;;;;5006584;28;874;-56
2021/04/23 15:23:11;;;;;;;;;;;;;;;;;;5006473;28;1363;-57
2021/04/23 15:25:37;;;;;;;;;;;;;;;;;;5005843;28;1918;-58
2021/04/23 15:28:04;;;;;;;;;;;;;;;;;;5005306;28;1428;-58
2021/04/23 15:30:30;;;;;;;;;;;;;;;;;;5007260;28;815;-58
2021/04/23 15:32:58;;;;;;;;;;;;;;;;;;5007808;28;882;-57
2021/04/23 15:35:24;;;;;;;;;;;;;;;;;;5006941;28;846;-57
2021/04/23 15:37:49;;;;;;;;;;;;;;;;;;5006325;28;925;-57
2021/04/23 15:40:16;;;;;;;;;;;;;;;;;;5005466;28;874;-57
2021/04/23 15:42:43;;;;;;;;;;;;;;;;;;5006895;28;878;-58
2021/04/23 15:45:10;;;;;;;;;;;;;;;;;;5006250;28;1909;-57
2021/04/23 15:47:35;;;;;;;;;;;;;;;;;;5004672;28;1178;-57
2021/04/23 15:50:01;;;;;;;;;;;;;;;;;;5006132;28;838;-58
2021/04/23 15:52:27;;;;;;;;;;;;;;;;;;5007742;28;1137;-57
2021/04/23 15:54:52;;;;;;;;;;;;;;;;;;5040257;28;1232;-57
2021/04/23 15:57:17;;;;;;;;;;;;;;;;;;5057181;28;1202;-57
2021/04/23 15:59:43;;;;;;;;;;;;;;;;;;5006015;28;914;-58
2021/04/23 16:02:09;;;;;;;;;;;;;;;;;;5006355;28;907;-58
2021/04/23 16:04:34;;;;;;;;;;;;;;;;;;5005378;28;1965;-57
2021/04/23 16:07:00;;;;;;;;;;;;;;;;;;5000165;28;1479;-60
2021/04/23 16:09:26;;;;;;;;;;;;;;;;;;5004318;28;1702;-58
2021/04/23 16:11:51;;;;;;;;;;;;;;;;;;5004785;28;1690;-61
2021/04/23 16:14:17;;;;;;;;;;;;;;;;;;5054502;28;1150;-58
2021/04/23 16:16:43;;;;;;;;;;;;;;;;;;5077041;28;1820;-58
2021/04/23 16:19:08;;;;;;;;;;;;;;;;;;5005932;28;807;-58
2021/04/23 16:21:33;;;;;;;;;;;;;;;;;;5005597;28;1291;-58
2021/04/23 16:23:59;;;;;;;;;;;;;;;;;;5006262;28;1971;-58
2021/04/23 16:26:24;;;;;;;;;;;;;;;;;;5004996;28;1806;-58
2021/04/23 16:28:50;;;;;;;;;;;;;;;;;;5005787;28;886;-58
2021/04/23 16:31:15;;;;;;;;;;;;;;;;;;5004288;28;1155;-58
2021/04/23 16:33:41;;;;;;;;;;;;;;;;;;5005368;28;1175;-58
2021/04/23 16:36:06;;;;;;;;;;;;;;;;;;5005093;28;1186;-58
2021/04/23 16:38:31;;;;;;;;;;;;;;;;;;5004505;28;1199;-59
2021/04/23 16:40:57;;;;;;;;;;;;;;;;;;5005179;28;1155;-58
2021/04/23 16:43:22;;;;;;;;;;;;;;;;;;5004602;28;1891;-58
2021/04/23 16:45:48;;;;;;;;;;;;;;;;;;5004418;28;1162;-58
2021/04/23 16:48:13;;;;;;;;;;;;;;;;;;5004976;28;662;-60
2021/04/23 16:50:39;;;;;;;;;;;;;;;;;;5006352;28;1348;-58
2021/04/23 16:53:06;;;;;;;;;;;;;;;;;;5024524;28;849;-58
2021/04/23 16:55:32;;;;;;;;;;;;;;;;;;5024863;28;1059;-58
2021/04/23 16:57:57;;;;;;;;;;;;;;;;;;5024843;28;863;-58
2021/04/23 17:00:24;;;;;;;;;;;;;;;;;;5012363;28;1237;-58
2021/04/23 17:02:51;;;;;;;;;;;;;;;;;;5007528;28;1413;-58
2021/04/23 17:05:16;;;;;;;;;;;;;;;;;;5004199;28;1969;-58
2021/04/23 17:07:42;;;;;;;;;;;;;;;;;;5004326;28;1143;-58
2021/04/23 17:10:09;;;;;;;;;;;;;;;;;;5003590;28;1195;-58
2021/04/23 17:12:35;;;;;;;;;;;;;;;;;;5002734;28;1167;-58